Time;durP1;ratioP1;P1;durP2;ratioP2;P2;SDS_P1;SDS_P2;PMS_P1;PMS_P2;Temp;Humidity;BMP_temperature;BMP_pressure;BME280_temperature;BME280_humidity;BME280_pressure;Samples;Min_cycle;Max_cycle;Signal;HPM_P1;HPM_P2
2022/08/16 00:00:42;;;;;;;441.85;249.70;;;;;;;;;;4998290;28;20212;-48
2022/08/16 00:03:09;;;;;;;404.02;232.98;;;;;;;;;;4997316;28;20307;-49
2022/08/16 00:05:35;;;;;;;417.35;238.30;;;;;;;;;;5005435;28;20350;-49
2022/08/16 00:08:01;;;;;;;463.58;255.40;;;;;;;;;;4995535;28;20258;-49
2022/08/16 00:10:28;;;;;;;443.90;251.82;;;;;;;;;;5004545;28;20220;-49
2022/08/16 00:12:54;;;;;;;423.02;242.25;;;;;;;;;;4994242;28;20325;-49
2022/08/16 00:15:26;;;;;;;392.08;226.32;;;;;;;;;;5000574;28;20192;-49
2022/08/16 00:17:52;;;;;;;440.98;247.98;;;;;;;;;;5002042;28;20224;-48
2022/08/16 00:20:18;;;;;;;430.13;242.38;;;;;;;;;;5006356;28;20330;-48
2022/08/16 00:22:44;;;;;;;397.58;232.13;;;;;;;;;;4995948;28;20314;-49
2022/08/16 00:25:12;;;;;;;472.10;264.95;;;;;;;;;;5001467;28;20239;-49
2022/08/16 00:27:38;;;;;;;466.58;264.55;;;;;;;;;;4995052;28;20231;-49
2022/08/16 00:30:06;;;;;;;480.23;264.50;;;;;;;;;;4997514;28;20211;-48
2022/08/16 00:32:32;;;;;;;428.50;238.90;;;;;;;;;;5001654;28;20274;-48
2022/08/16 00:34:58;;;;;;;454.30;251.73;;;;;;;;;;4998734;28;20220;-49
2022/08/16 00:37:25;;;;;;;448.48;244.98;;;;;;;;;;4997336;28;20235;-49
2022/08/16 00:39:52;;;;;;;391.50;224.65;;;;;;;;;;4996476;28;20331;-48
2022/08/16 00:42:18;;;;;;;384.77;223.10;;;;;;;;;;5004824;28;20315;-49
2022/08/16 00:44:46;;;;;;;424.92;237.23;;;;;;;;;;4991827;28;20310;-49
2022/08/16 00:47:15;;;;;;;416.25;239.00;;;;;;;;;;5001197;28;20259;-49
2022/08/16 00:49:41;;;;;;;446.98;252.10;;;;;;;;;;4997858;28;20238;-49
2022/08/16 00:52:06;;;;;;;431.23;243.27;;;;;;;;;;4997981;28;20679;-49
2022/08/16 00:54:32;;;;;;;468.38;260.60;;;;;;;;;;4994265;28;20212;-49
2022/08/16 00:56:59;;;;;;;376.77;224.30;;;;;;;;;;5015368;28;20180;-49
2022/08/16 00:59:27;;;;;;;402.63;228.88;;;;;;;;;;5003948;28;20673;-49
2022/08/16 01:01:53;;;;;;;408.70;235.32;;;;;;;;;;5000492;28;20308;-49
2022/08/16 01:04:21;;;;;;;391.23;224.07;;;;;;;;;;5004116;28;20798;-49
2022/08/16 01:06:48;;;;;;;409.98;231.48;;;;;;;;;;4997223;28;20234;-48
2022/08/16 01:09:14;;;;;;;434.85;247.27;;;;;;;;;;5001910;28;20196;-49
2022/08/16 01:11:40;;;;;;;416.35;243.73;;;;;;;;;;4994650;28;20219;-49
2022/08/16 01:14:12;;;;;;;393.95;226.93;;;;;;;;;;5002670;28;20290;-49
2022/08/16 01:16:38;;;;;;;422.35;246.48;;;;;;;;;;5002732;28;20235;-48
2022/08/16 01:19:23;;;;;;;438.45;249.18;;;;;;;;;;4989070;28;20219;-48
2022/08/16 01:21:58;;;;;;;415.35;235.38;;;;;;;;;;4997885;28;20246;-48
2022/08/16 01:24:39;;;;;;;406.35;230.75;;;;;;;;;;4997686;28;20679;-48
2022/08/16 01:27:09;;;;;;;446.90;249.32;;;;;;;;;;5005169;28;20315;-48
2022/08/16 01:29:41;;;;;;;407.33;238.70;;;;;;;;;;5001353;28;20546;-48
2022/08/16 01:32:07;;;;;;;410.63;242.38;;;;;;;;;;5000993;28;20729;-49
2022/08/16 01:34:33;;;;;;;453.88;260.77;;;;;;;;;;5004379;28;20238;-48
2022/08/16 01:37:03;;;;;;;427.92;241.05;;;;;;;;;;5008562;28;20214;-49
2022/08/16 01:39:29;;;;;;;431.00;248.93;;;;;;;;;;5003066;28;20641;-48
2022/08/16 01:41:56;;;;;;;421.60;244.05;;;;;;;;;;5000713;28;20236;-48
2022/08/16 01:44:21;;;;;;;398.85;235.65;;;;;;;;;;5008760;28;20775;-49
2022/08/16 01:46:48;;;;;;;439.05;237.35;;;;;;;;;;5000626;28;20303;-49
2022/08/16 01:49:20;;;;;;;428.02;236.02;;;;;;;;;;4999639;28;20228;-49
2022/08/16 01:51:47;;;;;;;465.65;256.08;;;;;;;;;;4997299;28;20220;-49
2022/08/16 01:54:13;;;;;;;416.00;233.73;;;;;;;;;;5009292;28;20680;-48
2022/08/16 01:56:40;;;;;;;440.70;241.98;;;;;;;;;;5002034;28;20389;-49
2022/08/16 01:59:07;;;;;;;427.48;234.80;;;;;;;;;;5003992;28;20344;-48
2022/08/16 02:01:33;;;;;;;406.55;228.57;;;;;;;;;;5008591;28;20216;-48
2022/08/16 02:04:00;;;;;;;397.15;238.75;;;;;;;;;;5010194;28;20240;-48
2022/08/16 02:06:26;;;;;;;425.65;248.35;;;;;;;;;;4997476;28;20255;-48
2022/08/16 02:08:53;;;;;;;461.70;258.80;;;;;;;;;;4999754;28;20192;-49
2022/08/16 02:11:20;;;;;;;443.17;253.57;;;;;;;;;;4996145;28;20298;-49
2022/08/16 02:13:46;;;;;;;435.85;245.70;;;;;;;;;;4998033;28;20216;-49
2022/08/16 02:16:12;;;;;;;400.73;231.90;;;;;;;;;;5005904;28;20633;-49
2022/08/16 02:18:39;;;;;;;426.67;246.55;;;;;;;;;;5004954;28;20208;-48
2022/08/16 02:21:05;;;;;;;435.65;246.40;;;;;;;;;;5002095;28;20478;-49
2022/08/16 02:23:33;;;;;;;431.52;244.38;;;;;;;;;;4999162;28;20216;-49
2022/08/16 02:25:59;;;;;;;477.60;266.55;;;;;;;;;;4994360;28;20242;-48
2022/08/16 02:28:25;;;;;;;412.20;233.73;;;;;;;;;;4999396;28;20617;-48
2022/08/16 02:30:55;;;;;;;427.95;251.35;;;;;;;;;;5005123;28;20214;-48
2022/08/16 02:33:22;;;;;;;569.30;315.75;;;;;;;;;;4993228;28;21176;-48
2022/08/16 02:35:47;;;;;;;392.45;221.77;;;;;;;;;;5002004;28;20711;-49
2022/08/16 02:38:13;;;;;;;441.98;246.90;;;;;;;;;;4999637;28;20219;-48
2022/08/16 02:40:40;;;;;;;494.50;270.90;;;;;;;;;;5000967;28;20212;-48
2022/08/16 02:43:06;;;;;;;426.50;235.88;;;;;;;;;;4997580;28;20238;-48
2022/08/16 02:45:32;;;;;;;426.75;239.55;;;;;;;;;;4994803;28;20201;-48
2022/08/16 02:47:58;;;;;;;434.92;249.25;;;;;;;;;;4999649;28;20192;-48
2022/08/16 02:50:25;;;;;;;397.05;228.48;;;;;;;;;;5008078;28;20243;-49
2022/08/16 02:52:51;;;;;;;395.67;226.27;;;;;;;;;;5006500;28;20585;-48
2022/08/16 02:55:17;;;;;;;463.15;269.48;;;;;;;;;;4999058;28;22128;-49
2022/08/16 02:57:43;;;;;;;403.52;233.93;;;;;;;;;;4999693;28;21102;-49
2022/08/16 03:00:11;;;;;;;445.27;253.93;;;;;;;;;;4997707;28;20202;-49
2022/08/16 03:02:38;;;;;;;428.55;239.65;;;;;;;;;;5006399;28;20616;-48
2022/08/16 03:05:06;;;;;;;401.48;238.23;;;;;;;;;;5001460;28;20617;-48
2022/08/16 03:07:32;;;;;;;422.58;241.43;;;;;;;;;;5003685;28;20296;-48
2022/08/16 03:09:58;;;;;;;385.08;226.27;;;;;;;;;;5006257;28;20224;-48
2022/08/16 03:12:23;;;;;;;430.30;248.60;;;;;;;;;;4995111;28;22511;-48
2022/08/16 03:14:50;;;;;;;416.10;250.93;;;;;;;;;;5002220;28;20218;-48
2022/08/16 03:17:16;;;;;;;433.52;249.82;;;;;;;;;;4998690;28;20216;-48
2022/08/16 03:19:42;;;;;;;425.42;250.40;;;;;;;;;;4997906;28;20220;-48
2022/08/16 03:22:08;;;;;;;466.95;263.48;;;;;;;;;;4999635;28;20223;-48
2022/08/16 03:24:34;;;;;;;419.73;245.07;;;;;;;;;;4999673;28;20293;-48
2022/08/16 03:27:01;;;;;;;393.73;234.80;;;;;;;;;;4999050;28;20413;-49
2022/08/16 03:29:27;;;;;;;425.80;243.75;;;;;;;;;;4995830;28;20212;-49
2022/08/16 03:31:53;;;;;;;386.33;225.68;;;;;;;;;;5007668;28;20221;-48
2022/08/16 03:34:19;;;;;;;440.52;253.38;;;;;;;;;;4994986;28;20283;-48
2022/08/16 03:36:45;;;;;;;412.02;236.07;;;;;;;;;;4999786;28;20260;-48
2022/08/16 03:39:11;;;;;;;419.20;240.27;;;;;;;;;;4996150;28;20208;-48
2022/08/16 03:41:39;;;;;;;409.38;237.55;;;;;;;;;;5004767;28;20303;-48
2022/08/16 03:44:06;;;;;;;383.75;224.98;;;;;;;;;;4997744;28;20284;-48
2022/08/16 03:46:32;;;;;;;437.38;248.13;;;;;;;;;;4997133;28;20603;-49
2022/08/16 03:48:58;;;;;;;409.77;240.55;;;;;;;;;;4993979;28;20223;-48
2022/08/16 03:51:24;;;;;;;400.30;231.05;;;;;;;;;;4999575;28;23030;-49
2022/08/16 03:53:50;;;;;;;379.80;220.10;;;;;;;;;;5004101;28;20197;-49
2022/08/16 03:56:16;;;;;;;411.77;234.48;;;;;;;;;;4999039;28;20441;-48
2022/08/16 03:58:42;;;;;;;463.10;256.00;;;;;;;;;;4995195;28;20221;-49
2022/08/16 04:01:09;;;;;;;445.70;257.80;;;;;;;;;;4993009;28;20216;-48
2022/08/16 04:03:35;;;;;;;408.50;241.35;;;;;;;;;;4998148;28;20262;-49
2022/08/16 04:06:01;;;;;;;375.38;215.77;;;;;;;;;;5002672;28;20597;-48
2022/08/16 04:08:29;;;;;;;413.15;228.65;;;;;;;;;;5005511;28;20216;-49
2022/08/16 04:10:55;;;;;;;386.35;214.63;;;;;;;;;;5005257;28;20216;-48
2022/08/16 04:13:22;;;;;;;394.75;221.07;;;;;;;;;;5002922;28;20566;-48
2022/08/16 04:15:48;;;;;;;476.55;259.05;;;;;;;;;;4999258;28;20712;-49
2022/08/16 04:18:15;;;;;;;409.55;227.90;;;;;;;;;;4999241;28;20339;-48
2022/08/16 04:20:41;;;;;;;388.92;214.45;;;;;;;;;;5004160;28;20612;-48
2022/08/16 04:23:07;;;;;;;415.40;226.07;;;;;;;;;;5001725;28;20226;-48
2022/08/16 04:25:34;;;;;;;414.02;231.05;;;;;;;;;;4993560;28;20228;-48
2022/08/16 04:28:00;;;;;;;411.75;227.45;;;;;;;;;;5005986;28;20224;-48
2022/08/16 04:30:26;;;;;;;373.95;211.60;;;;;;;;;;5005429;28;20207;-49
2022/08/16 04:32:52;;;;;;;382.05;210.20;;;;;;;;;;5006193;28;20292;-48
2022/08/16 04:35:19;;;;;;;395.45;225.77;;;;;;;;;;4998473;28;20208;-48
2022/08/16 04:37:47;;;;;;;406.33;229.25;;;;;;;;;;5002902;28;20546;-48
2022/08/16 04:40:13;;;;;;;437.77;241.45;;;;;;;;;;4997239;28;20665;-48
2022/08/16 04:42:41;;;;;;;410.33;226.18;;;;;;;;;;4992855;28;20218;-48
2022/08/16 04:45:09;;;;;;;435.58;246.57;;;;;;;;;;4994902;28;20177;-49
2022/08/16 04:47:35;;;;;;;438.30;250.77;;;;;;;;;;5000904;28;20209;-48
2022/08/16 04:50:08;;;;;;;404.02;235.57;;;;;;;;;;5001113;28;20216;-49
2022/08/16 04:52:35;;;;;;;413.02;235.48;;;;;;;;;;5004488;28;20295;-48
2022/08/16 04:55:01;;;;;;;444.25;257.15;;;;;;;;;;5002611;28;20212;-48
2022/08/16 04:57:27;;;;;;;414.30;244.13;;;;;;;;;;4990561;28;20193;-48
2022/08/16 04:59:53;;;;;;;414.05;240.18;;;;;;;;;;4997926;28;20241;-49
2022/08/16 05:02:19;;;;;;;402.75;235.75;;;;;;;;;;4999142;28;20664;-48
2022/08/16 05:04:45;;;;;;;393.13;232.60;;;;;;;;;;5006299;28;20304;-48
2022/08/16 05:07:11;;;;;;;413.98;240.10;;;;;;;;;;4993212;28;20421;-48
2022/08/16 05:09:37;;;;;;;398.17;232.95;;;;;;;;;;4998686;28;20242;-48
2022/08/16 05:12:03;;;;;;;416.70;244.80;;;;;;;;;;5006438;28;20205;-48
2022/08/16 05:14:29;;;;;;;412.15;237.00;;;;;;;;;;5000660;28;21283;-48
2022/08/16 05:16:55;;;;;;;427.33;240.05;;;;;;;;;;5007152;28;21055;-48
2022/08/16 05:19:21;;;;;;;402.10;226.45;;;;;;;;;;5003115;28;20255;-50
2022/08/16 05:21:47;;;;;;;402.90;228.77;;;;;;;;;;5006200;28;20302;-50
2022/08/16 05:24:13;;;;;;;398.50;229.63;;;;;;;;;;5009262;28;20354;-50
2022/08/16 05:26:39;;;;;;;437.25;245.50;;;;;;;;;;4997517;28;20929;-50
2022/08/16 05:29:06;;;;;;;434.73;242.80;;;;;;;;;;4990036;28;20226;-50
2022/08/16 05:31:32;;;;;;;427.58;240.70;;;;;;;;;;4976954;28;20238;-49
2022/08/16 05:34:02;;;;;;;494.27;269.40;;;;;;;;;;4988912;28;20212;-49
2022/08/16 05:36:28;;;;;;;424.50;234.63;;;;;;;;;;4987900;28;20499;-50
2022/08/16 05:38:54;;;;;;;408.75;235.60;;;;;;;;;;5005286;28;20243;-50
2022/08/16 05:41:20;;;;;;;358.15;207.20;;;;;;;;;;5003270;28;20307;-50
2022/08/16 05:43:46;;;;;;;373.15;215.27;;;;;;;;;;5009595;28;20278;-49
2022/08/16 05:46:13;;;;;;;446.17;247.55;;;;;;;;;;4989320;28;20668;-50
2022/08/16 05:48:39;;;;;;;420.15;235.23;;;;;;;;;;4990677;28;20267;-49
2022/08/16 05:51:05;;;;;;;425.38;237.57;;;;;;;;;;5004050;28;20188;-49
2022/08/16 05:53:31;;;;;;;389.52;227.35;;;;;;;;;;4997942;28;20641;-50
2022/08/16 05:55:57;;;;;;;418.95;236.85;;;;;;;;;;4999332;28;20212;-49
2022/08/16 05:58:22;;;;;;;475.38;259.30;;;;;;;;;;4995903;28;20669;-49
2022/08/16 06:00:48;;;;;;;511.63;288.92;;;;;;;;;;4988628;28;20773;-49
2022/08/16 06:03:14;;;;;;;470.10;273.40;;;;;;;;;;5004012;28;20220;-49
2022/08/16 06:05:41;;;;;;;499.48;282.20;;;;;;;;;;4995846;28;20228;-49
2022/08/16 06:08:07;;;;;;;457.98;258.95;;;;;;;;;;4993959;28;21143;-49
2022/08/16 06:10:32;;;;;;;408.23;235.98;;;;;;;;;;5001381;28;20791;-49
2022/08/16 06:12:58;;;;;;;407.95;254.02;;;;;;;;;;5006660;28;20300;-49
2022/08/16 06:15:24;;;;;;;442.95;266.85;;;;;;;;;;4998999;28;20662;-50
2022/08/16 06:17:50;;;;;;;431.50;256.92;;;;;;;;;;4991445;28;20199;-48
2022/08/16 06:20:18;;;;;;;434.70;258.75;;;;;;;;;;5002649;28;20235;-48
2022/08/16 06:22:44;;;;;;;422.95;249.90;;;;;;;;;;5001707;28;20227;-48
2022/08/16 06:25:11;;;;;;;419.55;237.65;;;;;;;;;;4999318;28;20217;-48
2022/08/16 06:27:38;;;;;;;380.10;220.82;;;;;;;;;;5006613;28;20307;-48
2022/08/16 06:30:04;;;;;;;387.58;228.80;;;;;;;;;;5003984;28;21157;-48
2022/08/16 06:32:30;;;;;;;447.38;269.40;;;;;;;;;;4998509;28;20220;-49
2022/08/16 06:34:56;;;;;;;584.55;314.83;;;;;;;;;;4964492;28;20228;-46
2022/08/16 06:37:22;;;;;;;471.10;268.88;;;;;;;;;;5002063;28;20312;-46
2022/08/16 06:39:48;;;;;;;489.83;265.73;;;;;;;;;;4992625;28;20216;-48
2022/08/16 06:42:14;;;;;;;437.95;263.77;;;;;;;;;;4991493;28;20188;-48
2022/08/16 06:44:40;;;;;;;414.40;258.15;;;;;;;;;;4999880;28;20286;-48
2022/08/16 06:47:06;;;;;;;417.27;258.08;;;;;;;;;;4994935;28;20833;-50
2022/08/16 06:49:32;;;;;;;434.55;258.45;;;;;;;;;;5005438;28;20269;-50
2022/08/16 06:51:58;;;;;;;457.25;266.38;;;;;;;;;;5011373;28;20227;-50
2022/08/16 06:54:24;;;;;;;392.60;227.80;;;;;;;;;;5010624;28;20658;-50
2022/08/16 06:56:50;;;;;;;410.15;234.05;;;;;;;;;;5007187;28;20212;-50
2022/08/16 06:59:16;;;;;;;408.58;242.32;;;;;;;;;;5004975;28;20220;-50
2022/08/16 07:01:42;;;;;;;424.30;246.35;;;;;;;;;;5007256;28;20212;-50
2022/08/16 07:04:08;;;;;;;472.17;272.38;;;;;;;;;;5001658;28;20239;-50
2022/08/16 07:06:34;;;;;;;405.35;247.85;;;;;;;;;;5012923;28;20577;-50
2022/08/16 07:09:00;;;;;;;455.77;275.08;;;;;;;;;;5006269;28;20597;-50
2022/08/16 07:11:26;;;;;;;424.63;267.80;;;;;;;;;;5009004;28;20231;-50
2022/08/16 07:13:53;;;;;;;457.58;282.25;;;;;;;;;;4997163;28;20315;-50
2022/08/16 07:16:19;;;;;;;450.75;276.05;;;;;;;;;;5000871;28;20339;-50
2022/08/16 07:18:45;;;;;;;439.73;260.90;;;;;;;;;;5005683;28;20664;-50
2022/08/16 07:21:12;;;;;;;440.00;262.15;;;;;;;;;;5001069;28;20676;-50
2022/08/16 07:23:39;;;;;;;436.83;256.17;;;;;;;;;;4994160;28;20716;-51
2022/08/16 07:26:06;;;;;;;413.35;243.48;;;;;;;;;;5001293;28;20248;-51
2022/08/16 07:28:32;;;;;;;457.80;265.77;;;;;;;;;;5003071;28;20356;-51
2022/08/16 07:31:00;;;;;;;450.85;277.02;;;;;;;;;;4991475;28;20697;-50
2022/08/16 07:33:26;;;;;;;456.45;277.15;;;;;;;;;;4997884;28;20208;-51
2022/08/16 07:35:52;;;;;;;398.58;243.38;;;;;;;;;;4996528;28;20197;-51
2022/08/16 07:38:18;;;;;;;417.95;252.18;;;;;;;;;;5005349;28;20696;-51
2022/08/16 07:40:44;;;;;;;397.45;243.25;;;;;;;;;;5000903;28;20319;-51
2022/08/16 07:43:10;;;;;;;436.13;266.00;;;;;;;;;;5003493;28;20223;-50
2022/08/16 07:45:36;;;;;;;537.20;314.73;;;;;;;;;;4998380;28;20700;-51
2022/08/16 07:48:02;;;;;;;491.42;307.95;;;;;;;;;;4998920;28;20303;-49
2022/08/16 07:50:28;;;;;;;470.67;298.85;;;;;;;;;;4992097;28;20221;-48
2022/08/16 07:52:54;;;;;;;477.08;287.38;;;;;;;;;;4991759;28;20326;-49
2022/08/16 07:55:20;;;;;;;426.33;279.38;;;;;;;;;;4993267;28;20751;-48
2022/08/16 07:57:46;;;;;;;433.92;289.52;;;;;;;;;;4989181;28;20219;-48
2022/08/16 08:00:12;;;;;;;467.55;300.35;;;;;;;;;;4995301;28;20240;-49
2022/08/16 08:02:38;;;;;;;424.60;284.58;;;;;;;;;;5003360;28;20629;-48
2022/08/16 08:05:05;;;;;;;513.63;309.33;;;;;;;;;;4987729;28;20244;-47
2022/08/16 08:07:31;;;;;;;516.33;323.90;;;;;;;;;;4990639;28;20700;-47
2022/08/16 08:09:58;;;;;;;440.70;293.98;;;;;;;;;;5005883;28;20391;-48
2022/08/16 08:12:24;;;;;;;442.50;296.95;;;;;;;;;;5001666;28;20185;-47
2022/08/16 08:14:50;;;;;;;423.35;290.15;;;;;;;;;;5003415;28;20192;-48
2022/08/16 08:17:16;;;;;;;486.55;318.58;;;;;;;;;;4998258;28;20231;-48
2022/08/16 08:19:44;;;;;;;457.42;302.45;;;;;;;;;;5004192;28;20657;-47
2022/08/16 08:22:10;;;;;;;439.08;288.90;;;;;;;;;;4991980;28;20208;-48
2022/08/16 08:24:38;;;;;;;512.00;308.08;;;;;;;;;;4995193;28;20215;-47
2022/08/16 08:27:07;;;;;;;464.92;297.60;;;;;;;;;;4997609;28;20200;-48
2022/08/16 08:29:33;;;;;;;416.80;275.00;;;;;;;;;;4998162;28;20213;-48
2022/08/16 08:32:00;;;;;;;449.38;285.60;;;;;;;;;;5009650;28;20216;-47
2022/08/16 08:34:26;;;;;;;423.15;285.33;;;;;;;;;;4985947;28;20725;-47
2022/08/16 08:36:52;;;;;;;491.27;317.30;;;;;;;;;;4989225;28;20570;-48
2022/08/16 08:39:18;;;;;;;488.20;317.50;;;;;;;;;;4997458;28;20254;-47
2022/08/16 08:41:44;;;;;;;423.20;291.10;;;;;;;;;;4991552;28;20181;-47
2022/08/16 08:44:10;;;;;;;424.17;284.17;;;;;;;;;;5001077;28;20228;-47
2022/08/16 08:46:36;;;;;;;522.47;330.58;;;;;;;;;;4993669;28;20238;-47
2022/08/16 08:49:02;;;;;;;518.42;327.02;;;;;;;;;;4993219;28;20215;-47
2022/08/16 08:51:29;;;;;;;494.90;316.85;;;;;;;;;;4992274;28;20282;-47
2022/08/16 08:53:55;;;;;;;468.58;294.98;;;;;;;;;;4993785;28;20738;-51
2022/08/16 08:56:21;;;;;;;441.23;287.10;;;;;;;;;;4991653;28;20220;-51
2022/08/16 08:58:47;;;;;;;458.63;293.65;;;;;;;;;;4991472;28;20251;-51
2022/08/16 09:01:13;;;;;;;434.52;278.55;;;;;;;;;;5000314;28;20646;-51
2022/08/16 09:03:39;;;;;;;408.98;268.30;;;;;;;;;;4997558;28;20289;-51
2022/08/16 09:06:07;;;;;;;457.80;294.52;;;;;;;;;;4993199;28;20204;-51
2022/08/16 09:08:33;;;;;;;436.77;286.60;;;;;;;;;;5005855;28;20277;-51
2022/08/16 09:10:59;;;;;;;428.75;278.85;;;;;;;;;;5002538;28;20267;-51
2022/08/16 09:13:26;;;;;;;433.08;285.80;;;;;;;;;;5005659;28;20221;-51
2022/08/16 09:15:54;;;;;;;415.52;280.65;;;;;;;;;;5002862;28;20212;-51
2022/08/16 09:18:21;;;;;;;428.42;284.30;;;;;;;;;;5002524;28;20355;-50
2022/08/16 09:20:47;;;;;;;465.83;303.10;;;;;;;;;;5004544;28;20168;-51
2022/08/16 09:23:13;;;;;;;425.05;284.30;;;;;;;;;;5003723;28;20753;-51
2022/08/16 09:25:39;;;;;;;464.08;298.30;;;;;;;;;;5002956;28;20223;-51
2022/08/16 09:28:05;;;;;;;426.73;282.85;;;;;;;;;;5007704;28;20286;-51
2022/08/16 09:30:34;;;;;;;477.58;311.52;;;;;;;;;;5001704;28;20201;-51
2022/08/16 09:33:00;;;;;;;411.60;284.23;;;;;;;;;;5004646;28;20216;-50
2022/08/16 09:35:27;;;;;;;430.13;288.83;;;;;;;;;;5001269;28;20228;-51
2022/08/16 09:37:53;;;;;;;426.42;288.42;;;;;;;;;;5003672;28;20212;-51
2022/08/16 09:40:19;;;;;;;422.38;285.92;;;;;;;;;;5002422;28;20756;-51
2022/08/16 09:42:44;;;;;;;447.10;293.63;;;;;;;;;;4999505;28;20212;-51
2022/08/16 09:45:11;;;;;;;422.92;285.25;;;;;;;;;;5011560;28;20212;-51
2022/08/16 09:47:39;;;;;;;482.42;321.00;;;;;;;;;;5005394;28;20751;-51
2022/08/16 09:50:06;;;;;;;438.98;297.63;;;;;;;;;;5006863;28;20220;-51
2022/08/16 09:52:36;;;;;;;437.35;298.13;;;;;;;;;;5010658;28;20216;-51
2022/08/16 09:55:02;;;;;;;397.63;284.98;;;;;;;;;;5007817;28;20254;-51
2022/08/16 09:57:28;;;;;;;456.35;309.83;;;;;;;;;;5008277;28;20237;-51
2022/08/16 10:02:58;;;;;;;424.80;294.20;;;;;;;;;;4998106;28;20298;-51
2022/08/16 10:05:24;;;;;;;427.88;298.23;;;;;;;;;;5014559;28;20228;-51
2022/08/16 10:07:53;;;;;;;491.83;330.10;;;;;;;;;;5006876;28;20227;-51
2022/08/16 10:10:20;;;;;;;454.33;304.35;;;;;;;;;;5002229;28;20235;-51
2022/08/16 10:15:32;;;;;;;488.58;330.77;;;;;;;;;;4991570;28;20242;-51
2022/08/16 10:17:59;;;;;;;469.77;320.73;;;;;;;;;;5001718;28;20189;-51
2022/08/16 10:20:26;;;;;;;461.02;315.55;;;;;;;;;;4998323;28;20220;-51
2022/08/16 10:22:52;;;;;;;552.13;366.38;;;;;;;;;;4990438;28;20212;-50
2022/08/16 10:25:18;;;;;;;431.23;305.00;;;;;;;;;;4992518;28;20628;-50
2022/08/16 10:27:47;;;;;;;507.55;341.17;;;;;;;;;;4998638;28;20216;-52
2022/08/16 10:30:14;;;;;;;452.90;317.60;;;;;;;;;;5006321;28;20203;-51
2022/08/16 10:32:40;;;;;;;449.98;323.30;;;;;;;;;;5002903;28;20216;-51
2022/08/16 10:35:06;;;;;;;698.50;415.23;;;;;;;;;;4972009;23;20692;-53
2022/08/16 10:37:32;;;;;;;477.83;313.90;;;;;;;;;;4945871;28;20834;-54
2022/08/16 10:40:00;;;;;;;459.05;316.42;;;;;;;;;;4944501;28;20210;-54
2022/08/16 10:42:26;;;;;;;433.75;304.85;;;;;;;;;;4959657;28;20182;-54
2022/08/16 10:44:52;;;;;;;461.38;318.52;;;;;;;;;;4949087;28;20178;-54
2022/08/16 10:47:18;;;;;;;509.10;338.85;;;;;;;;;;4946433;28;20831;-54
2022/08/16 10:49:45;;;;;;;411.20;297.85;;;;;;;;;;4956497;28;20226;-55
2022/08/16 10:52:11;;;;;;;478.48;328.88;;;;;;;;;;4956694;28;20594;-54
2022/08/16 10:54:38;;;;;;;433.63;308.02;;;;;;;;;;4955183;28;22762;-54
2022/08/16 10:57:04;;;;;;;489.35;335.58;;;;;;;;;;4950420;28;20197;-54
2022/08/16 10:59:30;;;;;;;451.10;320.05;;;;;;;;;;4946273;28;20226;-54
2022/08/16 11:01:57;;;;;;;452.38;327.67;;;;;;;;;;4954637;28;20327;-54
2022/08/16 11:04:25;;;;;;;427.15;311.27;;;;;;;;;;4946370;28;20221;-54
2022/08/16 11:06:51;;;;;;;475.20;329.38;;;;;;;;;;4948579;28;20240;-55
2022/08/16 11:09:16;;;;;;;483.52;336.95;;;;;;;;;;4953896;28;20202;-54
2022/08/16 11:11:43;;;;;;;432.40;319.58;;;;;;;;;;4947767;28;20226;-54
2022/08/16 11:14:09;;;;;;;459.13;336.35;;;;;;;;;;4955657;28;20773;-54
2022/08/16 11:16:35;;;;;;;412.52;313.90;;;;;;;;;;4945644;28;20586;-54
2022/08/16 11:19:02;;;;;;;432.38;315.60;;;;;;;;;;4955328;28;20776;-54
2022/08/16 11:21:28;;;;;;;422.92;319.77;;;;;;;;;;4954000;28;20186;-54
2022/08/16 11:23:54;;;;;;;461.70;334.63;;;;;;;;;;4951467;28;20260;-54
2022/08/16 11:26:21;;;;;;;474.33;343.17;;;;;;;;;;4950630;28;20232;-54
2022/08/16 11:28:49;;;;;;;476.20;341.23;;;;;;;;;;4944595;28;20214;-54
2022/08/16 11:31:15;;;;;;;469.73;341.17;;;;;;;;;;4943718;28;20479;-54
2022/08/16 11:33:41;;;;;;;516.00;366.52;;;;;;;;;;4948315;28;20229;-54
2022/08/16 11:36:07;;;;;;;507.33;367.42;;;;;;;;;;4941867;28;20190;-54
2022/08/16 11:38:33;;;;;;;439.90;326.90;;;;;;;;;;4950592;28;20460;-54
2022/08/16 11:41:00;;;;;;;418.45;322.17;;;;;;;;;;4959563;28;20386;-54
2022/08/16 11:43:31;;;;;;;465.10;353.92;;;;;;;;;;4952285;28;20221;-54
2022/08/16 11:45:58;;;;;;;383.10;308.35;;;;;;;;;;4954963;28;20218;-54
2022/08/16 11:48:25;;;;;;;473.25;346.08;;;;;;;;;;4950843;28;20186;-54
2022/08/16 11:50:52;;;;;;;505.35;374.17;;;;;;;;;;4965447;28;20669;-54
2022/08/16 11:53:19;;;;;;;457.38;348.13;;;;;;;;;;4951094;28;20218;-54
2022/08/16 11:55:45;;;;;;;453.98;346.88;;;;;;;;;;4954014;28;20471;-54
2022/08/16 11:58:11;;;;;;;441.30;341.52;;;;;;;;;;4958037;28;20214;-54
2022/08/16 12:00:39;;;;;;;432.00;345.73;;;;;;;;;;4957152;28;20548;-54
2022/08/16 12:03:05;;;;;;;494.30;374.27;;;;;;;;;;4943919;28;20263;-56
2022/08/16 12:05:31;;;;;;;547.90;403.60;;;;;;;;;;4947147;28;20615;-56
2022/08/16 12:07:57;;;;;;;493.15;373.17;;;;;;;;;;4955960;28;20206;-56
2022/08/16 12:10:24;;;;;;;446.45;352.33;;;;;;;;;;4952889;28;20725;-56
2022/08/16 12:12:50;;;;;;;455.42;358.38;;;;;;;;;;4952679;28;20885;-56
2022/08/16 12:15:17;;;;;;;432.33;349.58;;;;;;;;;;4949607;28;20179;-56
2022/08/16 12:17:43;;;;;;;454.25;369.88;;;;;;;;;;4956938;28;20218;-56
2022/08/16 12:20:14;;;;;;;482.50;378.20;;;;;;;;;;4954704;28;20373;-56
2022/08/16 12:22:40;;;;;;;461.30;362.40;;;;;;;;;;4946247;28;20313;-56
2022/08/16 12:25:07;;;;;;;439.90;358.80;;;;;;;;;;4952373;28;20342;-56
2022/08/16 12:27:35;;;;;;;441.25;359.38;;;;;;;;;;4949512;28;20698;-56
2022/08/16 12:30:01;;;;;;;516.00;393.95;;;;;;;;;;4936776;28;20191;-56
2022/08/16 12:32:27;;;;;;;455.55;370.83;;;;;;;;;;4947118;28;20700;-56
2022/08/16 12:34:53;;;;;;;545.70;408.50;;;;;;;;;;4941680;28;20210;-56
2022/08/16 12:37:19;;;;;;;472.90;380.65;;;;;;;;;;4957408;28;20765;-56
2022/08/16 12:39:45;;;;;;;433.92;360.17;;;;;;;;;;4956663;28;20694;-56
2022/08/16 12:42:11;;;;;;;441.10;363.70;;;;;;;;;;4965253;28;20179;-56
2022/08/16 12:44:40;;;;;;;447.15;364.20;;;;;;;;;;4965111;28;20222;-56
2022/08/16 12:49:51;;;;;;;464.50;375.15;;;;;;;;;;4961679;28;20728;-56
2022/08/16 12:52:16;;;;;;;453.73;367.60;;;;;;;;;;4963440;28;20218;-56
2022/08/16 12:54:42;;;;;;;434.02;359.20;;;;;;;;;;4960265;28;20230;-56
2022/08/16 12:57:08;;;;;;;428.35;362.27;;;;;;;;;;4961961;28;20405;-56
2022/08/16 12:59:35;;;;;;;439.55;361.35;;;;;;;;;;4959493;28;20228;-56
2022/08/16 13:02:02;;;;;;;434.60;365.65;;;;;;;;;;4962214;28;20214;-56
2022/08/16 13:04:29;;;;;;;417.20;368.45;;;;;;;;;;4961516;28;20537;-56
2022/08/16 13:06:57;;;;;;;422.15;364.77;;;;;;;;;;4963199;28;20233;-56
2022/08/16 13:09:24;;;;;;;489.17;392.38;;;;;;;;;;4959173;28;20214;-56
2022/08/16 13:12:00;;;;;;;438.15;367.13;;;;;;;;;;4962979;28;20539;-56
2022/08/16 13:14:27;;;;;;;506.23;400.95;;;;;;;;;;4956585;28;20644;-56
2022/08/16 13:16:53;;;;;;;418.15;360.70;;;;;;;;;;4963695;28;20329;-56
2022/08/16 13:19:19;;;;;;;429.17;368.63;;;;;;;;;;4964714;28;20301;-56
2022/08/16 13:21:45;;;;;;;419.65;367.88;;;;;;;;;;4960915;28;20245;-56
2022/08/16 13:24:11;;;;;;;451.00;382.92;;;;;;;;;;4959631;28;20746;-56
2022/08/16 13:26:37;;;;;;;445.55;375.90;;;;;;;;;;4959260;28;20224;-56
2022/08/16 13:29:03;;;;;;;414.35;368.73;;;;;;;;;;4963364;28;20216;-56
2022/08/16 13:31:29;;;;;;;459.52;378.73;;;;;;;;;;4960014;28;20570;-56
2022/08/16 13:33:55;;;;;;;435.83;379.88;;;;;;;;;;4960467;28;20227;-56
2022/08/16 13:36:21;;;;;;;413.35;367.52;;;;;;;;;;4962579;28;20190;-56
2022/08/16 13:38:47;;;;;;;428.65;375.63;;;;;;;;;;4964604;28;20619;-56
2022/08/16 13:41:13;;;;;;;458.65;400.05;;;;;;;;;;4957182;28;20303;-56
2022/08/16 13:43:40;;;;;;;463.63;408.77;;;;;;;;;;4962590;28;20229;-56
2022/08/16 13:46:06;;;;;;;447.95;390.65;;;;;;;;;;4962738;28;20214;-56
2022/08/16 13:48:33;;;;;;;461.73;411.25;;;;;;;;;;4961427;28;20202;-56
2022/08/16 13:50:59;;;;;;;458.05;407.63;;;;;;;;;;4963634;28;20624;-56
2022/08/16 13:53:27;;;;;;;474.75;422.42;;;;;;;;;;4964333;28;20214;-56
2022/08/16 13:55:53;;;;;;;468.42;418.45;;;;;;;;;;4960569;28;20745;-56